createdAt,value
2019-05-17T00:01:57.786Z,16.60
2019-05-17T00:04:27.016Z,16.60
2019-05-17T00:06:57.077Z,16.50
2019-05-17T00:09:26.818Z,16.50
2019-05-17T00:11:56.861Z,16.50
2019-05-17T00:14:27.162Z,16.40
2019-05-17T00:16:57.352Z,16.40
2019-05-17T00:19:26.293Z,16.40
2019-05-17T00:21:56.681Z,16.30
2019-05-17T00:24:26.530Z,16.20
2019-05-17T00:26:55.177Z,16.20
2019-05-17T00:29:23.556Z,16.20
2019-05-17T00:31:51.984Z,16.20
2019-05-17T00:34:20.316Z,16.20
2019-05-17T00:36:48.717Z,16.10
2019-05-17T00:39:17.154Z,16.10
2019-05-17T00:41:46.984Z,16.10
2019-05-17T00:44:16.780Z,16.10
2019-05-17T00:46:46.738Z,16.10
2019-05-17T00:49:17.092Z,16.00
2019-05-17T00:51:47.462Z,15.90
2019-05-17T00:54:17.440Z,15.90
2019-05-17T00:56:46.401Z,15.90
2019-05-17T00:59:17.097Z,15.90
2019-05-17T01:01:46.843Z,15.90
2019-05-17T01:04:17.387Z,15.80
2019-05-17T01:06:46.843Z,15.80
2019-05-17T01:09:16.980Z,15.80
2019-05-17T01:11:47.347Z,15.80
2019-05-17T01:14:17.579Z,15.80
2019-05-17T01:16:47.549Z,15.80
2019-05-17T01:19:16.377Z,15.90
2019-05-17T01:21:47.281Z,15.80
2019-05-17T01:24:17.106Z,15.80
2019-05-17T01:26:46.896Z,15.80
2019-05-17T01:29:17.295Z,15.80
2019-05-17T01:31:46.477Z,15.80
2019-05-17T01:34:16.642Z,15.80
2019-05-17T01:36:46.556Z,15.80
2019-05-17T01:39:18.691Z,15.80
2019-05-17T01:41:46.826Z,15.80
2019-05-17T01:44:16.680Z,15.70
2019-05-17T01:46:46.451Z,15.70
2019-05-17T01:49:16.463Z,15.70
2019-05-17T01:51:46.555Z,15.70
2019-05-17T01:54:17.343Z,15.70
2019-05-17T01:56:46.217Z,15.70
2019-05-17T01:59:17.098Z,15.70
2019-05-17T02:01:47.335Z,15.60
2019-05-17T02:04:17.386Z,15.50
2019-05-17T02:06:46.744Z,15.50
2019-05-17T02:09:32.231Z,15.50
2019-05-17T02:11:46.678Z,15.40
2019-05-17T02:14:16.584Z,15.40
2019-05-17T02:16:46.753Z,15.40
2019-05-17T02:19:17.270Z,15.40
2019-05-17T02:21:47.898Z,15.40
2019-05-17T02:24:16.984Z,15.40
2019-05-17T02:26:46.577Z,15.40
2019-05-17T02:29:15.174Z,15.40
2019-05-17T02:31:43.854Z,15.40
2019-05-17T02:34:14.191Z,15.40
2019-05-17T02:36:43.298Z,15.40
2019-05-17T02:39:13.192Z,15.40
2019-05-17T02:41:43.090Z,15.40
2019-05-17T02:44:13.089Z,15.40
2019-05-17T02:46:43.378Z,15.40
2019-05-17T02:49:13.759Z,15.40
2019-05-17T02:51:43.115Z,15.40
2019-05-17T02:54:13.214Z,15.40
2019-05-17T02:56:43.671Z,15.40
2019-05-17T02:59:13.454Z,15.30
2019-05-17T03:01:44.337Z,15.30
2019-05-17T03:04:12.999Z,15.40
2019-05-17T03:06:43.929Z,15.40
2019-05-17T03:09:13.419Z,15.30
2019-05-17T03:11:42.922Z,15.30
2019-05-17T03:14:12.832Z,15.30
2019-05-17T03:16:43.004Z,15.20
2019-05-17T03:19:13.063Z,15.20
2019-05-17T03:21:42.975Z,15.20
2019-05-17T03:24:13.663Z,15.30
2019-05-17T03:26:42.993Z,15.30
2019-05-17T03:29:13.784Z,15.20
2019-05-17T03:31:50.481Z,15.20
2019-05-17T03:34:16.807Z,15.20
2019-05-17T03:36:46.746Z,15.10
2019-05-17T03:39:13.039Z,15.10
2019-05-17T03:41:42.939Z,15.00
2019-05-17T03:44:13.522Z,15.00
2019-05-17T03:46:42.536Z,15.10
2019-05-17T03:49:13.087Z,15.10
2019-05-17T03:51:42.562Z,15.10
2019-05-17T03:54:13.891Z,15.10
2019-05-17T03:56:42.716Z,15.10
2019-05-17T03:59:12.901Z,15.00
2019-05-17T04:01:43.599Z,15.00
2019-05-17T04:04:13.457Z,15.00
2019-05-17T04:06:43.654Z,15.00
2019-05-17T04:09:13.783Z,15.00
2019-05-17T04:11:42.989Z,15.00
2019-05-17T04:14:13.950Z,15.00
2019-05-17T04:16:42.893Z,14.90
2019-05-17T04:19:13.947Z,15.00
2019-05-17T04:21:42.883Z,14.90
2019-05-17T04:24:12.625Z,14.90
2019-05-17T04:26:43.871Z,15.00
2019-05-17T04:29:13.550Z,15.00
2019-05-17T04:31:43.452Z,15.00
2019-05-17T04:34:13.550Z,14.90
2019-05-17T04:36:43.197Z,14.90
2019-05-17T04:39:13.423Z,14.80
2019-05-17T04:41:49.750Z,14.90
2019-05-17T04:44:12.882Z,14.90
2019-05-17T04:46:43.083Z,14.90
2019-05-17T04:49:13.869Z,14.80
2019-05-17T04:51:43.988Z,14.90
2019-05-17T04:54:13.677Z,14.80
2019-05-17T04:56:43.154Z,14.80
2019-05-17T04:59:13.760Z,14.80
2019-05-17T05:01:43.484Z,14.80
2019-05-17T05:04:15.464Z,14.90
2019-05-17T05:06:43.571Z,15.00
2019-05-17T05:09:12.842Z,15.00
2019-05-17T05:11:53.373Z,15.10
2019-05-17T05:14:12.793Z,15.10
2019-05-17T05:16:42.469Z,15.30
2019-05-17T05:19:13.019Z,15.30
2019-05-17T05:21:42.623Z,15.30
2019-05-17T05:24:11.533Z,15.30
2019-05-17T05:26:42.305Z,15.20
2019-05-17T05:29:12.524Z,15.20
2019-05-17T05:31:42.605Z,15.20
2019-05-17T05:34:12.346Z,15.20
2019-05-17T05:36:41.868Z,15.20
2019-05-17T05:39:11.619Z,15.20
2019-05-17T05:41:42.517Z,15.20
2019-05-17T05:44:12.072Z,15.20
2019-05-17T05:46:42.196Z,15.20
2019-05-17T05:49:12.191Z,15.20
2019-05-17T05:51:42.300Z,15.30
2019-05-17T05:54:12.308Z,15.40
2019-05-17T05:56:42.229Z,15.60
2019-05-17T05:59:12.115Z,15.70
2019-05-17T06:01:42.103Z,15.70
2019-05-17T06:04:11.795Z,15.80
2019-05-17T06:06:41.616Z,16.00
2019-05-17T06:09:12.098Z,16.00
2019-05-17T06:11:41.705Z,16.00
2019-05-17T06:14:12.228Z,16.00
2019-05-17T06:16:42.487Z,16.10
2019-05-17T06:19:11.635Z,16.00
2019-05-17T06:21:42.524Z,16.00
2019-05-17T06:24:11.909Z,16.10
2019-05-17T06:26:42.129Z,16.20
2019-05-17T06:29:11.812Z,16.20
2019-05-17T06:31:43.044Z,16.30
2019-05-17T06:34:11.654Z,16.40
2019-05-17T06:36:42.360Z,16.60
2019-05-17T06:39:11.720Z,16.60
2019-05-17T06:41:41.897Z,16.70
2019-05-17T06:44:12.220Z,16.70
2019-05-17T06:46:41.777Z,16.70
2019-05-17T06:49:11.768Z,16.70
2019-05-17T06:51:42.411Z,16.70
2019-05-17T06:54:11.972Z,16.70
2019-05-17T06:56:41.797Z,16.80
2019-05-17T06:59:10.426Z,16.90
2019-05-17T07:01:40.830Z,17.00
2019-05-17T07:04:10.250Z,17.00
2019-05-17T07:06:40.465Z,17.00
2019-05-17T07:09:10.064Z,17.10
2019-05-17T07:11:39.796Z,17.20
2019-05-17T07:14:09.444Z,17.40
2019-05-17T07:16:39.722Z,17.60
2019-05-17T07:19:10.237Z,17.80
2019-05-17T07:21:40.281Z,17.90
2019-05-17T07:24:10.053Z,17.90
2019-05-17T07:26:39.354Z,17.80
2019-05-17T07:29:09.868Z,17.80
2019-05-17T07:31:40.258Z,17.90
2019-05-17T07:34:09.268Z,17.90
2019-05-17T07:36:39.709Z,18.00
2019-05-17T07:39:10.560Z,18.00
2019-05-17T07:41:39.945Z,18.10
2019-05-17T07:44:09.952Z,18.20
2019-05-17T07:46:39.971Z,18.20
2019-05-17T07:49:10.617Z,18.20
2019-05-17T07:51:39.597Z,18.20
2019-05-17T07:54:10.302Z,18.30
2019-05-17T07:56:40.239Z,18.30
2019-05-17T07:59:09.555Z,18.40
2019-05-17T08:01:38.044Z,18.40
2019-05-17T08:04:06.402Z,18.40
2019-05-17T08:06:34.809Z,18.40
2019-05-17T08:09:05.060Z,18.50
2019-05-17T08:11:33.460Z,18.50
2019-05-17T08:14:01.869Z,18.40
2019-05-17T08:16:30.481Z,18.50
2019-05-17T08:19:00.312Z,18.50
2019-05-17T08:21:30.483Z,18.50
2019-05-17T08:24:00.040Z,18.60
2019-05-17T08:26:29.694Z,18.70
2019-05-17T08:29:00.409Z,18.90
2019-05-17T08:31:29.557Z,19.00
2019-05-17T08:34:00.079Z,19.00
2019-05-17T08:36:29.829Z,19.00
2019-05-17T08:38:59.705Z,19.10
2019-05-17T08:41:30.895Z,19.20
2019-05-17T08:44:00.694Z,19.30
2019-05-17T08:46:30.500Z,19.20
2019-05-17T08:49:00.259Z,19.30
2019-05-17T08:51:30.525Z,19.30
2019-05-17T08:54:00.265Z,19.30
2019-05-17T08:56:30.858Z,19.20
2019-05-17T08:59:00.769Z,19.30
2019-05-17T09:01:30.162Z,19.40
2019-05-17T09:03:59.854Z,19.40
2019-05-17T09:06:29.300Z,19.40
2019-05-17T09:09:00.608Z,19.50
2019-05-17T09:11:30.118Z,19.40
2019-05-17T09:14:01.644Z,19.40
2019-05-17T09:16:30.554Z,19.40
2019-05-17T09:19:00.362Z,19.50
2019-05-17T09:21:31.061Z,19.50
2019-05-17T09:23:59.712Z,19.50
2019-05-17T09:26:29.409Z,19.60
2019-05-17T09:28:57.886Z,19.50
2019-05-17T09:31:26.240Z,19.50
2019-05-17T09:33:54.649Z,19.70
2019-05-17T09:36:23.061Z,19.70
2019-05-17T09:38:51.502Z,19.80
2019-05-17T09:41:20.112Z,19.90
2019-05-17T09:43:49.697Z,20.00
2019-05-17T09:46:19.622Z,20.00
2019-05-17T09:48:50.530Z,20.10
2019-05-17T09:51:19.621Z,20.20
2019-05-17T09:53:49.600Z,20.30
2019-05-17T09:56:20.443Z,20.40
2019-05-17T09:58:49.510Z,20.50
2019-05-17T10:01:19.615Z,20.70
2019-05-17T10:03:50.390Z,20.80
2019-05-17T10:06:20.134Z,20.80
2019-05-17T10:08:49.526Z,20.80
2019-05-17T10:11:20.063Z,21.00
2019-05-17T10:13:49.926Z,21.10
2019-05-17T10:16:20.284Z,21.20
2019-05-17T10:18:48.040Z,21.30
2019-05-17T10:21:16.451Z,21.40
2019-05-17T10:23:44.921Z,21.50
2019-05-17T10:26:13.302Z,21.60
2019-05-17T10:28:41.782Z,21.70
2019-05-17T10:31:11.349Z,21.70
2019-05-17T10:33:40.282Z,21.80
2019-05-17T10:36:08.653Z,21.60
2019-05-17T10:38:39.150Z,21.70
2019-05-17T10:41:07.031Z,21.80
2019-05-17T10:43:35.501Z,21.90
2019-05-17T10:46:03.914Z,22.00
2019-05-17T10:48:32.273Z,22.10
2019-05-17T10:51:00.651Z,22.10
2019-05-17T10:53:29.743Z,22.10
2019-05-17T10:56:00.733Z,22.20
2019-05-17T10:58:29.707Z,22.10
2019-05-17T11:01:00.573Z,22.10
2019-05-17T11:03:29.641Z,22.20
2019-05-17T11:05:59.688Z,22.20
2019-05-17T11:08:28.316Z,22.30
2019-05-17T11:10:56.615Z,22.40
2019-05-17T11:13:24.985Z,22.40
2019-05-17T11:15:53.345Z,22.40
2019-05-17T11:18:21.686Z,22.50
2019-05-17T11:20:50.069Z,22.50
2019-05-17T11:23:18.600Z,22.60
2019-05-17T11:25:46.971Z,22.50
2019-05-17T11:28:15.441Z,22.60
2019-05-17T11:30:44.327Z,22.70
2019-05-17T11:33:12.704Z,22.70
2019-05-17T11:35:41.164Z,22.80
2019-05-17T11:38:09.543Z,22.90
2019-05-17T11:40:37.945Z,23.10
2019-05-17T11:43:06.356Z,23.10
2019-05-17T11:45:34.765Z,23.30
2019-05-17T11:48:03.101Z,23.30
2019-05-17T11:50:31.621Z,23.40
2019-05-17T11:53:00.022Z,23.50
2019-05-17T11:55:28.357Z,23.50
2019-05-17T11:57:56.822Z,23.50
2019-05-17T12:00:25.199Z,23.60
2019-05-17T12:02:54.594Z,23.60
2019-05-17T12:05:23.048Z,23.60
2019-05-17T12:07:51.462Z,23.70
2019-05-17T12:10:19.829Z,23.80
2019-05-17T12:12:48.237Z,23.80
2019-05-17T12:15:16.626Z,23.90
2019-05-17T12:17:45.017Z,24.00
2019-05-17T12:20:14.100Z,24.10
2019-05-17T12:22:42.529Z,24.10
2019-05-17T12:25:11.077Z,24.10
2019-05-17T12:27:39.448Z,24.40
2019-05-17T12:30:09.072Z,24.40
2019-05-17T12:32:37.509Z,24.70
2019-05-17T12:35:05.893Z,25.20
2019-05-17T12:37:34.255Z,25.40
2019-05-17T12:40:02.741Z,25.60
2019-05-17T12:42:31.097Z,25.80
2019-05-17T12:44:59.511Z,25.90
2019-05-17T12:47:27.917Z,25.90
2019-05-17T12:49:56.318Z,25.90
2019-05-17T12:52:24.782Z,26.00
2019-05-17T12:54:53.257Z,26.00
2019-05-17T12:57:21.693Z,26.20
2019-05-17T12:59:50.036Z,26.50
2019-05-17T13:02:38.994Z,26.60
2019-05-17T13:05:07.413Z,26.70
2019-05-17T13:07:35.829Z,26.70
2019-05-17T13:12:35.253Z,27.30
2019-05-17T13:15:04.836Z,27.70
2019-05-17T13:17:33.286Z,28.20
2019-05-17T13:20:01.869Z,28.30
2019-05-17T13:22:30.705Z,28.50
2019-05-17T13:24:59.097Z,28.60
2019-05-17T13:27:27.571Z,28.60
2019-05-17T13:29:56.019Z,28.50
2019-05-17T13:32:24.468Z,28.60
2019-05-17T13:34:52.932Z,28.50
2019-05-17T13:37:21.314Z,28.30
2019-05-17T13:39:49.685Z,28.10
2019-05-17T13:42:18.146Z,28.00
2019-05-17T13:44:46.609Z,28.00
2019-05-17T13:47:15.026Z,28.20
2019-05-17T13:49:43.500Z,28.20
2019-05-17T13:52:12.048Z,28.10
2019-05-17T13:54:40.479Z,28.10
2019-05-17T13:57:11.350Z,28.00
2019-05-17T13:59:38.889Z,27.90
2019-05-17T14:02:07.229Z,27.90
2019-05-17T14:04:35.608Z,28.10
2019-05-17T14:07:04.012Z,28.20
2019-05-17T14:09:32.382Z,28.70
2019-05-17T14:12:00.813Z,29.60
2019-05-17T14:14:29.223Z,30.40
2019-05-17T14:16:57.608Z,30.50
2019-05-17T14:19:25.970Z,30.10
2019-05-17T14:21:54.462Z,29.70
2019-05-17T14:24:22.896Z,29.20
2019-05-17T14:26:51.476Z,28.70
2019-05-17T14:29:19.829Z,28.40
2019-05-17T14:31:48.311Z,28.10
2019-05-17T14:34:16.704Z,27.90
2019-05-17T14:36:45.062Z,27.70
2019-05-17T14:39:13.531Z,27.40
2019-05-17T14:41:41.904Z,27.20
2019-05-17T14:44:10.252Z,27.00
2019-05-17T14:46:38.638Z,26.80
2019-05-17T14:49:07.077Z,26.70
2019-05-17T14:51:35.432Z,26.50
2019-05-17T14:54:03.861Z,26.40
2019-05-17T14:56:32.287Z,26.10
2019-05-17T14:59:00.643Z,25.90
2019-05-17T15:01:32.410Z,25.80
2019-05-17T15:03:59.182Z,25.70
2019-05-17T15:06:27.583Z,25.50
2019-05-17T15:08:56.001Z,25.30
2019-05-17T15:11:24.357Z,25.20
2019-05-17T15:13:52.753Z,25.10
2019-05-17T15:16:21.148Z,25.00
2019-05-17T15:18:49.721Z,24.90
2019-05-17T15:21:18.196Z,24.90
2019-05-17T15:23:46.658Z,24.80
2019-05-17T15:26:15.068Z,24.70
2019-05-17T15:28:43.568Z,24.60
2019-05-17T15:31:11.927Z,24.60
2019-05-17T15:33:40.396Z,24.40
2019-05-17T15:36:08.800Z,24.30
2019-05-17T15:38:37.191Z,24.30
2019-05-17T15:41:05.666Z,24.30
2019-05-17T15:43:34.040Z,24.20
2019-05-17T15:46:02.410Z,24.10
2019-05-17T15:48:30.866Z,23.90
2019-05-17T15:50:59.296Z,23.80
2019-05-17T15:53:27.713Z,23.70
2019-05-17T15:55:56.107Z,23.60
2019-05-17T15:58:24.542Z,23.50
2019-05-17T16:00:52.973Z,23.40
2019-05-17T16:03:21.342Z,23.40
2019-05-17T16:05:49.730Z,23.30
2019-05-17T16:08:18.129Z,23.20
2019-05-17T16:10:46.521Z,23.10
2019-05-17T16:13:14.958Z,23.00
2019-05-17T16:15:43.420Z,22.90
2019-05-17T16:18:11.814Z,22.80
2019-05-17T16:20:40.216Z,22.70
2019-05-17T16:23:08.649Z,22.60
2019-05-17T16:25:37.841Z,22.50
2019-05-17T16:28:06.167Z,22.50
2019-05-17T16:30:34.620Z,22.40
2019-05-17T16:33:02.976Z,22.30
2019-05-17T16:35:31.525Z,22.30
2019-05-17T16:37:59.918Z,22.30
2019-05-17T16:40:28.313Z,22.20
2019-05-17T16:42:56.733Z,22.20
2019-05-17T16:45:25.128Z,22.10
2019-05-17T16:47:53.567Z,22.10
2019-05-17T16:50:21.968Z,22.00
2019-05-17T16:53:04.935Z,22.10
2019-05-17T16:55:21.514Z,22.00
2019-05-17T16:57:49.878Z,21.90
2019-05-17T17:00:38.661Z,21.90
2019-05-17T17:03:07.013Z,21.90
2019-05-17T17:08:03.693Z,21.60
2019-05-17T17:10:32.041Z,21.40
2019-05-17T17:13:00.368Z,21.20
2019-05-17T17:15:28.854Z,21.20
2019-05-17T17:17:57.196Z,21.20
2019-05-17T17:20:25.525Z,21.00
2019-05-17T17:22:54.067Z,20.80
2019-05-17T17:25:23.405Z,20.70
2019-05-17T17:27:51.912Z,20.40
2019-05-17T17:30:21.258Z,20.20
2019-05-17T17:32:49.636Z,19.90
2019-05-17T17:35:18.066Z,19.70
2019-05-17T17:37:46.451Z,19.50
2019-05-17T17:40:20.586Z,19.50
2019-05-17T17:42:49.410Z,19.40
2019-05-17T17:45:19.009Z,19.30
2019-05-17T17:47:47.385Z,19.20
2019-05-17T17:50:16.042Z,19.10
2019-05-17T17:52:44.493Z,18.90
2019-05-17T17:55:12.915Z,18.90
2019-05-17T17:57:41.655Z,18.70
2019-05-17T18:00:10.072Z,18.60
2019-05-17T18:02:38.473Z,18.50
2019-05-17T18:05:06.930Z,18.20
2019-05-17T18:07:35.351Z,18.00
2019-05-17T18:10:05.917Z,18.00
2019-05-17T18:12:34.307Z,18.00
2019-05-17T18:15:05.922Z,17.90
2019-05-17T18:17:38.982Z,17.90
2019-05-17T18:20:02.766Z,17.70
2019-05-17T18:22:31.169Z,17.60
2019-05-17T18:24:59.630Z,17.60
2019-05-17T18:27:27.985Z,17.50
2019-05-17T18:29:56.387Z,17.40
2019-05-17T18:32:24.844Z,17.30
2019-05-17T18:34:53.275Z,17.30
2019-05-17T18:37:21.642Z,17.40
2019-05-17T18:39:51.162Z,17.40
2019-05-17T18:42:19.639Z,17.40
2019-05-17T18:44:48.141Z,17.30
2019-05-17T18:47:16.568Z,17.30
2019-05-17T18:49:44.949Z,17.20
2019-05-17T18:52:13.370Z,17.00
2019-05-17T18:54:41.736Z,16.90
2019-05-17T18:57:10.157Z,16.60
2019-05-17T18:59:38.580Z,16.50
2019-05-17T19:02:06.957Z,16.40
2019-05-17T19:04:35.388Z,16.40
2019-05-17T19:07:03.805Z,16.40
2019-05-17T19:09:32.415Z,16.50
2019-05-17T19:12:00.904Z,16.50
2019-05-17T19:14:42.055Z,16.50
2019-05-17T19:16:59.293Z,16.60
2019-05-17T19:19:27.768Z,16.70
2019-05-17T19:21:56.118Z,16.70
2019-05-17T19:24:25.395Z,16.60
2019-05-17T19:26:53.821Z,16.50
2019-05-17T19:29:22.208Z,16.50
2019-05-17T19:31:50.533Z,16.40
2019-05-17T19:34:19.009Z,16.40
2019-05-17T19:36:47.492Z,16.40
2019-05-17T19:39:15.901Z,16.50
2019-05-17T19:41:44.355Z,16.50
2019-05-17T19:44:12.836Z,16.50
2019-05-17T19:46:41.335Z,16.40
2019-05-17T19:49:09.923Z,16.40
2019-05-17T19:51:38.360Z,16.40
2019-05-17T19:54:06.708Z,16.40
2019-05-17T19:56:35.279Z,16.30
2019-05-17T19:59:03.680Z,16.30
2019-05-17T20:01:32.091Z,16.30
2019-05-17T20:04:00.605Z,16.30
2019-05-17T20:06:29.001Z,16.30
2019-05-17T20:08:57.460Z,16.20
2019-05-17T20:11:33.954Z,16.10
2019-05-17T20:13:55.983Z,16.10
2019-05-17T20:16:24.512Z,16.10
2019-05-17T20:18:54.064Z,16.10
2019-05-17T20:21:22.558Z,16.00
2019-05-17T20:23:50.937Z,16.00
2019-05-17T20:26:19.370Z,16.00
2019-05-17T20:28:47.799Z,16.00
2019-05-17T20:31:16.264Z,16.00
2019-05-17T20:33:44.649Z,16.10
2019-05-17T20:36:13.127Z,16.10
2019-05-17T20:38:41.549Z,16.10
2019-05-17T20:41:09.987Z,16.10
2019-05-17T20:43:38.523Z,16.10
2019-05-17T20:46:06.979Z,16.10
2019-05-17T20:48:35.387Z,16.20
2019-05-17T20:51:03.795Z,16.20
2019-05-17T20:53:32.247Z,16.20
2019-05-17T20:56:00.664Z,16.20
2019-05-17T20:58:29.048Z,16.20
2019-05-17T21:00:57.476Z,16.30
2019-05-17T21:03:25.945Z,16.30
2019-05-17T21:05:54.468Z,16.20
2019-05-17T21:08:22.868Z,16.30
2019-05-17T21:10:51.262Z,16.30
2019-05-17T21:13:19.747Z,16.40
2019-05-17T21:15:48.343Z,16.40
2019-05-17T21:18:16.792Z,16.50
2019-05-17T21:20:45.234Z,16.40
2019-05-17T21:23:13.658Z,16.50
2019-05-17T21:25:43.195Z,16.40
2019-05-17T21:28:11.583Z,16.40
2019-05-17T21:30:40.024Z,16.40
2019-05-17T21:33:08.487Z,16.40
2019-05-17T21:35:56.340Z,16.30
2019-05-17T21:38:24.696Z,16.30
2019-05-17T21:40:53.094Z,16.30
2019-05-17T21:43:21.551Z,16.30
2019-05-17T21:46:02.512Z,16.30
2019-05-17T21:48:20.041Z,16.30
2019-05-17T21:50:48.401Z,16.30
2019-05-17T21:53:16.774Z,16.30
2019-05-17T21:55:45.133Z,16.30
2019-05-17T21:58:13.502Z,16.20
2019-05-17T22:00:52.838Z,16.30
2019-05-17T22:03:21.279Z,16.20
2019-05-17T22:05:49.670Z,16.10
2019-05-17T22:08:18.033Z,16.20
2019-05-17T22:10:46.485Z,16.20
2019-05-17T22:13:14.838Z,16.30
2019-05-17T22:15:43.369Z,16.30
2019-05-17T22:18:11.795Z,16.40
2019-05-17T22:20:40.207Z,16.30
2019-05-17T22:23:08.659Z,16.30
2019-05-17T22:25:37.031Z,16.40
2019-05-17T22:28:05.464Z,16.30
2019-05-17T22:30:33.954Z,16.40
2019-05-17T22:33:02.380Z,16.40
2019-05-17T22:35:30.854Z,16.50
2019-05-17T22:37:59.214Z,16.40
2019-05-17T22:40:27.567Z,16.40
2019-05-17T22:42:56.010Z,16.40
2019-05-17T22:45:24.385Z,16.40
2019-05-17T22:47:52.749Z,16.40
2019-05-17T22:50:21.216Z,16.40
2019-05-17T22:52:49.641Z,16.30
2019-05-17T22:55:18.007Z,16.30
2019-05-17T22:57:46.383Z,16.20
2019-05-17T23:00:14.884Z,16.20
2019-05-17T23:02:43.288Z,16.10
2019-05-17T23:05:11.713Z,16.10
2019-05-17T23:07:40.101Z,16.10
2019-05-17T23:10:09.243Z,16.10
2019-05-17T23:12:37.604Z,16.10
2019-05-17T23:15:09.025Z,16.00
2019-05-17T23:17:37.400Z,16.00
2019-05-17T23:20:05.989Z,16.00
2019-05-17T23:22:34.465Z,15.90
2019-05-17T23:25:02.820Z,15.90
2019-05-17T23:27:31.229Z,15.80
2019-05-17T23:29:59.704Z,15.70
2019-05-17T23:32:28.109Z,15.70
2019-05-17T23:34:56.545Z,15.60
2019-05-17T23:37:24.930Z,15.60
2019-05-17T23:39:53.279Z,15.60
2019-05-17T23:42:21.565Z,15.70
2019-05-17T23:44:49.856Z,15.60
2019-05-17T23:47:18.268Z,15.70
2019-05-17T23:49:46.654Z,15.70
2019-05-17T23:52:15.078Z,15.70
2019-05-17T23:54:43.436Z,15.70
2019-05-17T23:57:11.880Z,15.70
2019-05-17T23:59:40.168Z,15.70
